Time;durP1;ratioP1;P1;durP2;ratioP2;P2;SDS_P1;SDS_P2;PMS_P1;PMS_P2;Temp;Humidity;BMP_temperature;BMP_pressure;BME280_temperature;BME280_humidity;BME280_pressure;Samples;Min_cycle;Max_cycle;Signal;HPM_P1;HPM_P2
2021/07/20 00:00:16;;;;;;;8.05;4.40;;;16.60;66.20;;;;;;4993545;28;20019;-76
2021/07/20 00:02:47;;;;;;;6.82;4.55;;;16.50;66.50;;;;;;4993016;28;20397;-76
2021/07/20 00:05:15;;;;;;;7.22;5.00;;;16.40;66.70;;;;;;4993225;28;20116;-76
2021/07/20 00:07:41;;;;;;;8.40;4.97;;;16.40;67.00;;;;;;4992312;28;20055;-76
2021/07/20 00:10:12;;;;;;;7.68;5.10;;;16.30;67.20;;;;;;4993138;28;20350;-77
2021/07/20 00:12:38;;;;;;;4.93;3.63;;;16.30;67.40;;;;;;4992675;28;20038;-76
2021/07/20 00:15:11;;;;;;;7.40;4.30;;;16.30;67.40;;;;;;4982707;28;20413;-76
2021/07/20 00:17:42;;;;;;;6.93;4.28;;;16.30;67.70;;;;;;4989968;28;20034;-76
2021/07/20 00:20:09;;;;;;;6.03;4.15;;;16.30;67.60;;;;;;4993384;28;20022;-76
2021/07/20 00:22:34;;;;;;;7.25;4.63;;;16.20;67.70;;;;;;4991054;28;20476;-76
2021/07/20 00:25:00;;;;;;;8.02;4.57;;;16.20;67.90;;;;;;4992669;28;20045;-76
2021/07/20 00:27:26;;;;;;;7.55;4.57;;;16.20;68.00;;;;;;4983937;28;20408;-76
2021/07/20 00:29:51;;;;;;;7.15;4.57;;;16.20;68.10;;;;;;4992732;28;20065;-76
2021/07/20 00:32:17;;;;;;;6.72;4.18;;;16.20;68.20;;;;;;4992471;28;20034;-76
2021/07/20 00:34:42;;;;;;;7.38;4.80;;;16.10;68.90;;;;;;4992780;28;20054;-76
2021/07/20 00:37:08;;;;;;;6.85;4.25;;;16.10;68.30;;;;;;4992636;28;20109;-76
2021/07/20 00:39:34;;;;;;;8.00;4.55;;;16.10;68.40;;;;;;4992261;28;20023;-77
2021/07/20 00:42:01;;;;;;;8.25;5.07;;;16.10;68.50;;;;;;4992428;28;20498;-77
2021/07/20 00:44:27;;;;;;;8.23;5.35;;;16.10;68.50;;;;;;4991099;28;20030;-77
2021/07/20 00:46:52;;;;;;;6.97;4.60;;;16.00;68.60;;;;;;4991057;28;20065;-77
2021/07/20 00:49:18;;;;;;;8.07;4.60;;;16.00;68.70;;;;;;4992262;28;20106;-77
2021/07/20 00:51:43;;;;;;;6.47;4.47;;;15.90;68.70;;;;;;4992230;28;20039;-77
2021/07/20 00:54:09;;;;;;;6.13;3.88;;;15.90;68.70;;;;;;4992546;28;20030;-77
2021/07/20 00:56:35;;;;;;;7.78;4.40;;;15.90;68.70;;;;;;4992572;28;20038;-77
2021/07/20 00:59:01;;;;;;;7.63;4.50;;;15.90;68.80;;;;;;4992454;28;20026;-77
2021/07/20 01:01:26;;;;;;;7.40;4.28;;;15.90;68.90;;;;;;4991698;28;20050;-77
2021/07/20 01:03:53;;;;;;;6.22;3.90;;;15.90;68.90;;;;;;4990810;28;20034;-77
2021/07/20 01:06:20;;;;;;;5.70;4.13;;;15.90;68.90;;;;;;4992422;28;20038;-77
2021/07/20 01:08:47;;;;;;;7.28;4.35;;;15.80;68.90;;;;;;4992424;28;20026;-77
2021/07/20 01:11:13;;;;;;;8.25;4.40;;;15.80;68.90;;;;;;4991828;28;20042;-77
2021/07/20 01:13:39;;;;;;;6.68;4.35;;;15.80;69.00;;;;;;4991995;28;20030;-76
2021/07/20 01:16:06;;;;;;;7.53;4.72;;;15.70;69.10;;;;;;4991963;28;20018;-77
2021/07/20 01:18:33;;;;;;;6.50;3.88;;;15.70;69.20;;;;;;4992325;28;20031;-77
2021/07/20 01:20:59;;;;;;;8.13;4.80;;;15.70;69.30;;;;;;4991607;28;20030;-77
2021/07/20 01:23:37;;;;;;;7.82;5.03;;;15.70;69.60;;;;;;4984867;28;20035;-77
2021/07/20 01:26:03;;;;;;;6.57;4.32;;;15.60;69.80;;;;;;4985269;28;20038;-76
2021/07/20 01:28:30;;;;;;;6.95;4.63;;;15.60;69.80;;;;;;4989196;28;20026;-77
2021/07/20 01:31:04;;;;;;;7.05;4.20;;;15.50;69.90;;;;;;4990276;28;20069;-77
2021/07/20 01:33:32;;;;;;;7.95;4.70;;;15.50;70.00;;;;;;4986425;28;20018;-76
2021/07/20 01:36:02;;;;;;;7.03;4.78;;;15.50;70.10;;;;;;4981596;28;20034;-76
2021/07/20 01:38:29;;;;;;;8.43;4.75;;;15.50;70.30;;;;;;4991449;28;20105;-76
2021/07/20 01:40:58;;;;;;;7.90;4.63;;;15.40;70.30;;;;;;4990625;28;20441;-77
2021/07/20 01:43:27;;;;;;;9.52;5.43;;;15.40;70.50;;;;;;4991100;28;20054;-76
2021/07/20 01:45:58;;;;;;;7.47;4.53;;;15.40;70.60;;;;;;4991299;28;20026;-76
2021/07/20 01:48:27;;;;;;;6.70;4.40;;;15.40;70.60;;;;;;4980327;28;20422;-77
2021/07/20 01:50:54;;;;;;;7.72;4.75;;;15.40;70.50;;;;;;4990770;28;20037;-77
2021/07/20 01:53:20;;;;;;;8.77;5.00;;;15.30;70.50;;;;;;4991508;28;20065;-76
2021/07/20 01:55:46;;;;;;;8.50;4.90;;;15.30;70.80;;;;;;4989418;28;20028;-77
2021/07/20 01:58:11;;;;;;;8.80;5.03;;;15.30;70.90;;;;;;4991332;28;20129;-77
2021/07/20 02:00:37;;;;;;;8.95;4.85;;;15.30;71.00;;;;;;4989912;28;20018;-78
2021/07/20 02:08:40;;;;;;;5.97;4.13;;;15.30;71.00;;;;;;4991736;28;20038;-77
2021/07/20 02:11:18;;;;;;;8.60;4.85;;;15.30;71.00;;;;;;4992150;28;20493;-77
2021/07/20 02:13:51;;;;;;;12.90;6.22;;;15.30;71.10;;;;;;4983491;28;20026;-77
2021/07/20 02:16:19;;;;;;;7.45;4.90;;;15.20;71.60;;;;;;4995257;28;20034;-77
2021/07/20 02:18:50;;;;;;;7.95;4.72;;;15.20;71.70;;;;;;4995580;28;20109;-76
2021/07/20 02:21:19;;;;;;;8.48;5.40;;;15.20;71.70;;;;;;4994732;28;20023;-77
2021/07/20 02:23:49;;;;;;;7.15;4.55;;;15.20;71.70;;;;;;4994623;28;20062;-76
2021/07/20 02:26:16;;;;;;;8.18;4.75;;;15.20;71.80;;;;;;4990922;28;20022;-76
2021/07/20 02:28:43;;;;;;;7.43;4.65;;;15.20;71.70;;;;;;4995026;28;20030;-76
2021/07/20 02:31:11;;;;;;;9.07;4.72;;;15.20;71.70;;;;;;4979551;28;20121;-77
2021/07/20 02:33:40;;;;;;;8.55;5.03;;;15.30;71.80;;;;;;4990686;28;20126;-76
2021/07/20 02:36:07;;;;;;;7.80;4.63;;;15.30;71.80;;;;;;4994562;28;20034;-76
2021/07/20 02:38:33;;;;;;;7.90;4.68;;;15.30;71.70;;;;;;4995135;28;20062;-76
2021/07/20 02:41:00;;;;;;;6.97;4.03;;;15.30;71.70;;;;;;4993413;28;20027;-78
2021/07/20 02:43:27;;;;;;;8.43;5.45;;;15.30;71.60;;;;;;4994382;28;20037;-78
2021/07/20 02:45:54;;;;;;;7.70;4.72;;;15.30;71.70;;;;;;4994727;28;20015;-77
2021/07/20 02:48:22;;;;;;;8.30;5.07;;;15.30;71.60;;;;;;4990644;28;20026;-77
2021/07/20 02:50:50;;;;;;;7.63;4.97;;;15.30;71.60;;;;;;4993114;28;20034;-77
2021/07/20 02:53:16;;;;;;;9.20;5.38;;;15.30;71.70;;;;;;4993248;28;20037;-77
2021/07/20 02:55:43;;;;;;;9.90;5.82;;;15.30;71.70;;;;;;4994373;28;20026;-76
2021/07/20 02:58:08;;;;;;;8.05;4.90;;;15.30;71.80;;;;;;4995074;28;20033;-76
2021/07/20 03:00:34;;;;;;;8.65;5.00;;;15.30;71.80;;;;;;4993864;28;20022;-76
2021/07/20 03:03:00;;;;;;;9.05;5.68;;;15.30;71.80;;;;;;4994480;28;20058;-76
2021/07/20 03:05:26;;;;;;;8.23;5.05;;;15.20;71.80;;;;;;4994620;28;20133;-76
2021/07/20 03:07:54;;;;;;;8.52;4.88;;;15.20;71.90;;;;;;4994149;28;20030;-76
2021/07/20 03:10:22;;;;;;;8.68;5.60;;;15.20;71.90;;;;;;4993760;28;20031;-76
2021/07/20 03:12:48;;;;;;;6.45;4.38;;;15.20;72.00;;;;;;4994434;28;20038;-77
2021/07/20 03:15:15;;;;;;;9.30;5.10;;;15.20;72.10;;;;;;4994290;28;20031;-77
2021/07/20 03:17:41;;;;;;;8.25;5.30;;;15.20;72.10;;;;;;4994216;28;20105;-77
2021/07/20 03:20:09;;;;;;;8.70;5.10;;;15.10;72.00;;;;;;4994102;28;20503;-77
2021/07/20 03:22:37;;;;;;;8.30;5.13;;;15.10;72.10;;;;;;4992778;28;20237;-77
2021/07/20 03:25:05;;;;;;;8.02;5.05;;;15.10;72.10;;;;;;4993030;28;20030;-77
2021/07/20 03:27:33;;;;;;;8.60;5.25;;;15.00;72.10;;;;;;4992631;28;20029;-77
2021/07/20 03:30:00;;;;;;;9.55;5.70;;;15.00;72.30;;;;;;4994650;28;20031;-77
2021/07/20 03:32:27;;;;;;;8.10;5.15;;;14.90;72.40;;;;;;4992857;28;20072;-77
2021/07/20 03:34:53;;;;;;;7.80;4.72;;;14.90;72.50;;;;;;4988808;28;20027;-77
2021/07/20 03:37:21;;;;;;;7.78;4.95;;;14.90;72.50;;;;;;4984798;28;20022;-77
2021/07/20 03:39:47;;;;;;;9.43;4.82;;;14.90;72.50;;;;;;4993469;28;20023;-77
2021/07/20 03:42:14;;;;;;;7.97;4.80;;;14.90;72.60;;;;;;4993274;28;20033;-77
2021/07/20 03:44:40;;;;;;;8.25;5.25;;;14.80;72.50;;;;;;4993685;28;20037;-77
2021/07/20 03:47:07;;;;;;;8.10;4.72;;;14.80;72.70;;;;;;4993806;28;20026;-77
2021/07/20 03:49:34;;;;;;;9.15;5.10;;;14.80;72.50;;;;;;4992795;28;20451;-77
2021/07/20 03:52:02;;;;;;;7.22;4.47;;;14.80;72.50;;;;;;4993663;28;20113;-77
2021/07/20 03:54:31;;;;;;;8.20;5.10;;;14.70;72.50;;;;;;4987849;28;20029;-77
2021/07/20 03:56:59;;;;;;;9.32;4.80;;;14.70;72.50;;;;;;4988221;28;20043;-77
2021/07/20 03:59:28;;;;;;;8.52;5.10;;;14.70;72.50;;;;;;4993254;28;20532;-77
2021/07/20 04:01:57;;;;;;;6.60;4.28;;;14.70;72.50;;;;;;4993116;28;20433;-77
2021/07/20 04:04:24;;;;;;;7.50;4.78;;;14.70;72.50;;;;;;4993087;28;20034;-77
2021/07/20 04:06:51;;;;;;;8.73;4.60;;;14.70;72.50;;;;;;4991725;28;20026;-77
2021/07/20 04:09:17;;;;;;;7.93;4.88;;;14.70;72.50;;;;;;4993383;28;20418;-77
2021/07/20 04:11:43;;;;;;;8.10;4.88;;;14.70;72.40;;;;;;4993233;28;20073;-77
2021/07/20 04:14:12;;;;;;;6.68;4.07;;;14.70;72.40;;;;;;4993233;28;20050;-77
2021/07/20 04:16:39;;;;;;;7.60;4.68;;;14.70;72.40;;;;;;4993024;28;20218;-77
2021/07/20 04:19:05;;;;;;;7.18;4.15;;;14.70;72.40;;;;;;4993310;28;20030;-78
2021/07/20 04:21:30;;;;;;;7.22;4.22;;;14.70;72.40;;;;;;4992947;28;20026;-78
2021/07/20 04:23:56;;;;;;;7.13;4.40;;;14.70;72.40;;;;;;4992896;28;20062;-77
2021/07/20 04:26:24;;;;;;;7.00;4.25;;;14.70;72.30;;;;;;4985020;28;20026;-77
2021/07/20 04:28:49;;;;;;;10.00;5.45;;;14.70;72.20;;;;;;4985255;28;20026;-77
2021/07/20 04:31:18;;;;;;;7.85;4.55;;;14.70;72.30;;;;;;4992589;28;20030;-77
2021/07/20 04:33:46;;;;;;;8.20;4.90;;;14.70;72.30;;;;;;4992123;28;20034;-78
2021/07/20 04:36:14;;;;;;;8.18;5.00;;;14.70;72.30;;;;;;4991364;28;20572;-78
2021/07/20 04:38:40;;;;;;;7.32;4.60;;;14.70;72.20;;;;;;4992458;28;20034;-78
2021/07/20 04:41:06;;;;;;;9.35;5.40;;;14.70;72.30;;;;;;4992647;28;20072;-78
2021/07/20 04:43:32;;;;;;;9.43;5.45;;;14.70;72.30;;;;;;4993059;28;20034;-78
2021/07/20 04:46:00;;;;;;;7.47;4.47;;;14.80;72.40;;;;;;4980194;28;20030;-78
2021/07/20 04:48:26;;;;;;;7.13;4.50;;;14.80;72.30;;;;;;4989019;28;20026;-78
2021/07/20 04:50:53;;;;;;;7.72;4.57;;;14.80;72.20;;;;;;4992196;28;20037;-78
2021/07/20 04:53:20;;;;;;;8.65;5.00;;;14.80;72.20;;;;;;4991607;28;20092;-78
2021/07/20 04:55:49;;;;;;;7.40;4.07;;;14.90;72.20;;;;;;4991560;28;20022;-78
2021/07/20 04:58:14;;;;;;;6.50;3.97;;;15.00;72.10;;;;;;4992696;28;20026;-78
2021/07/20 05:00:42;;;;;;;8.77;5.43;;;15.00;71.90;;;;;;4991584;28;20046;-78
2021/07/20 05:03:09;;;;;;;8.05;4.60;;;15.10;72.60;;;;;;4990612;28;20022;-78
2021/07/20 05:05:38;;;;;;;9.32;4.57;;;15.10;71.80;;;;;;4989768;28;20030;-79
2021/07/20 05:08:07;;;;;;;7.57;4.30;;;15.10;71.80;;;;;;4991470;28;20025;-77
2021/07/20 05:10:36;;;;;;;8.57;4.93;;;15.30;71.80;;;;;;4991702;28;20038;-77
2021/07/20 05:13:02;;;;;;;8.15;4.55;;;15.90;70.90;;;;;;4991932;28;20038;-77
2021/07/20 05:15:28;;;;;;;7.03;4.25;;;16.50;69.20;;;;;;4994609;28;20402;-77
2021/07/20 05:17:54;;;;;;;6.60;4.15;;;17.10;67.50;;;;;;4999027;28;20026;-77
2021/07/20 05:20:20;;;;;;;7.72;4.57;;;17.60;65.90;;;;;;4994938;28;20030;-77
2021/07/20 05:22:46;;;;;;;6.72;4.15;;;18.10;64.60;;;;;;4990170;28;20026;-77
2021/07/20 05:25:14;;;;;;;5.70;3.88;;;18.50;63.40;;;;;;4988116;28;20092;-76
2021/07/20 05:27:45;;;;;;;8.13;5.03;;;18.90;62.40;;;;;;4982750;28;20032;-76
2021/07/20 05:30:12;;;;;;;7.32;4.20;;;19.30;61.40;;;;;;4991420;28;20037;-76
2021/07/20 05:32:41;;;;;;;6.68;4.15;;;19.60;60.50;;;;;;4990720;28;20485;-77
2021/07/20 05:35:13;;;;;;;6.68;4.45;;;20.00;59.60;;;;;;4990540;28;20026;-80
2021/07/20 05:37:40;;;;;;;6.82;4.45;;;20.20;58.90;;;;;;4990851;28;20027;-79
2021/07/20 05:40:15;;;;;;;5.88;3.92;;;20.50;58.30;;;;;;4991232;28;20060;-78
2021/07/20 05:42:42;;;;;;;5.57;3.90;;;20.80;57.70;;;;;;4989838;28;20052;-79
2021/07/20 05:45:10;;;;;;;5.35;3.42;;;21.20;56.90;;;;;;4987765;28;20072;-82
2021/07/20 05:47:38;;;;;;;5.35;3.72;;;21.20;56.20;;;;;;4990919;28;20265;-79
2021/07/20 05:50:08;;;;;;;5.20;3.53;;;21.30;56.10;;;;;;4990422;28;20109;-80
2021/07/20 05:52:39;;;;;;;6.57;4.32;;;21.60;55.40;;;;;;4990961;28;20851;-79
2021/07/20 05:55:06;;;;;;;7.32;4.03;;;21.60;55.20;;;;;;4990849;28;20041;-77
2021/07/20 05:57:33;;;;;;;6.30;3.38;;;21.80;54.80;;;;;;4990982;28;20038;-80
2021/07/20 05:59:59;;;;;;;6.25;4.00;;;22.20;54.20;;;;;;4990261;28;20477;-78
2021/07/20 06:02:26;;;;;;;5.65;3.70;;;22.30;53.60;;;;;;4986883;28;20037;-78
2021/07/20 06:04:53;;;;;;;5.78;3.60;;;22.40;53.20;;;;;;4988494;28;20023;-79
2021/07/20 06:07:19;;;;;;;4.60;3.45;;;22.30;53.70;;;;;;4988232;28;20038;-77
2021/07/20 06:09:45;;;;;;;4.60;2.90;;;22.60;53.30;;;;;;4990476;28;20033;-77
2021/07/20 06:12:14;;;;;;;4.88;3.30;;;22.90;52.80;;;;;;4988866;28;20433;-78
2021/07/20 06:14:40;;;;;;;4.72;3.10;;;23.20;52.40;;;;;;4988620;28;20069;-77
2021/07/20 06:17:06;;;;;;;5.03;3.15;;;23.50;51.70;;;;;;4990221;28;20027;-78
2021/07/20 06:19:36;;;;;;;5.10;3.60;;;23.60;51.10;;;;;;4990818;28;20453;-78
2021/07/20 06:22:04;;;;;;;5.82;3.45;;;23.70;50.90;;;;;;4989377;28;20041;-77
2021/07/20 06:24:32;;;;;;;6.22;3.55;;;23.80;50.60;;;;;;4987289;28;20050;-77
2021/07/20 06:26:58;;;;;;;5.38;3.30;;;24.00;50.20;;;;;;4983729;28;20030;-77
2021/07/20 06:29:25;;;;;;;4.30;3.20;;;24.10;50.10;;;;;;4990970;28;20045;-77
2021/07/20 06:31:52;;;;;;;4.85;3.17;;;23.90;50.00;;;;;;4988874;28;20048;-76
2021/07/20 06:34:18;;;;;;;4.43;2.95;;;23.90;50.40;;;;;;4989970;28;20697;-77
2021/07/20 06:36:45;;;;;;;4.60;3.03;;;23.80;50.60;;;;;;4989677;28;20033;-77
2021/07/20 06:39:12;;;;;;;5.97;3.83;;;23.60;51.00;;;;;;4991028;28;20023;-77
2021/07/20 06:41:38;;;;;;;4.93;3.35;;;23.10;51.30;;;;;;4989409;28;20150;-77
2021/07/20 06:44:05;;;;;;;4.78;3.20;;;22.50;52.40;;;;;;4974761;28;20512;-77
2021/07/20 06:46:32;;;;;;;4.90;3.42;;;22.00;53.30;;;;;;4984755;28;20474;-77
2021/07/20 06:48:59;;;;;;;4.45;2.85;;;21.60;54.10;;;;;;4990805;28;20035;-77
2021/07/20 06:51:29;;;;;;;4.65;3.20;;;21.40;54.80;;;;;;4990356;28;20022;-76
2021/07/20 06:53:54;;;;;;;4.28;3.25;;;21.30;55.10;;;;;;4991093;28;20037;-77
2021/07/20 06:56:35;;;;;;;5.30;3.70;;;21.20;54.90;;;;;;4989391;28;20030;-77
2021/07/20 06:59:03;;;;;;;4.00;2.83;;;21.10;55.70;;;;;;4993443;28;20662;-77
2021/07/20 07:01:30;;;;;;;6.13;3.60;;;21.10;55.90;;;;;;4991552;28;20473;-77
2021/07/20 07:04:22;;;;;;;5.07;3.40;;;21.20;55.80;;;;;;4990330;28;20018;-74
2021/07/20 07:06:50;;;;;;;6.35;3.83;;;21.10;55.80;;;;;;4987418;28;20459;-76
2021/07/20 07:09:17;;;;;;;5.70;3.78;;;21.20;55.50;;;;;;4993672;28;20018;-75
2021/07/20 07:11:44;;;;;;;5.22;3.53;;;20.90;54.90;;;;;;4988038;28;20074;-75
2021/07/20 07:14:11;;;;;;;4.95;3.40;;;20.80;55.60;;;;;;4993585;28;20120;-77
2021/07/20 07:16:40;;;;;;;6.40;3.22;;;21.00;55.80;;;;;;4992273;28;20035;-78
2021/07/20 07:19:08;;;;;;;4.85;3.50;;;21.20;55.40;;;;;;4992211;28;20018;-77
2021/07/20 07:21:40;;;;;;;5.45;3.95;;;21.30;54.80;;;;;;4992261;28;20038;-77
2021/07/20 07:24:06;;;;;;;6.65;4.72;;;21.40;54.40;;;;;;5005029;28;20023;-77
2021/07/20 07:26:33;;;;;;;5.18;3.67;;;21.40;53.60;;;;;;4984023;28;20034;-76
2021/07/20 07:28:59;;;;;;;5.18;3.83;;;21.50;53.90;;;;;;4993525;28;20041;-77
2021/07/20 07:31:24;;;;;;;6.35;4.32;;;21.60;52.50;;;;;;4991861;28;20436;-76
2021/07/20 07:33:51;;;;;;;5.22;3.53;;;21.50;52.20;;;;;;4992671;28;20027;-75
2021/07/20 07:36:17;;;;;;;4.75;3.67;;;21.60;52.30;;;;;;4991482;28;20097;-75
2021/07/20 07:38:46;;;;;;;5.30;3.55;;;21.80;52.10;;;;;;4992292;28;20432;-76
2021/07/20 07:41:14;;;;;;;5.40;3.83;;;21.80;51.50;;;;;;4992641;28;20733;-76
2021/07/20 07:43:42;;;;;;;7.97;4.70;;;21.80;51.50;;;;;;4989823;28;20022;-75
2021/07/20 07:46:09;;;;;;;6.13;4.35;;;21.60;50.40;;;;;;4990610;28;20397;-76
2021/07/20 07:48:39;;;;;;;5.82;3.85;;;21.40;50.70;;;;;;4998169;28;20117;-76
2021/07/20 07:51:06;;;;;;;4.60;3.38;;;21.50;51.00;;;;;;4980292;28;20093;-75
2021/07/20 07:53:34;;;;;;;5.03;3.58;;;21.70;50.90;;;;;;4988048;28;20033;-77
2021/07/20 07:56:00;;;;;;;5.70;3.83;;;21.80;50.90;;;;;;4990059;28;20033;-79
2021/07/20 07:58:29;;;;;;;5.97;4.00;;;22.00;50.30;;;;;;4995454;28;20029;-77
2021/07/20 08:00:58;;;;;;;5.60;3.58;;;22.10;49.50;;;;;;4987214;28;20077;-76
2021/07/20 08:03:29;;;;;;;4.22;2.95;;;22.10;49.60;;;;;;4998581;28;20030;-76
2021/07/20 08:05:56;;;;;;;7.15;4.40;;;22.20;49.90;;;;;;4988076;28;20113;-77
2021/07/20 08:08:22;;;;;;;6.13;4.03;;;22.10;49.80;;;;;;4986793;28;20101;-75
2021/07/20 08:10:51;;;;;;;5.78;3.63;;;22.10;49.90;;;;;;4994971;28;20027;-75
2021/07/20 08:13:17;;;;;;;5.15;3.45;;;22.20;50.10;;;;;;4993524;28;20038;-75
2021/07/20 08:15:46;;;;;;;5.95;3.83;;;22.30;49.90;;;;;;4986305;28;20033;-75
2021/07/20 08:18:12;;;;;;;6.63;4.40;;;22.40;49.60;;;;;;4989357;28;20030;-77
2021/07/20 08:20:39;;;;;;;7.10;4.40;;;22.30;49.20;;;;;;4990762;28;20362;-78
2021/07/20 08:23:05;;;;;;;5.50;4.10;;;22.20;49.00;;;;;;4986718;28;20042;-77
2021/07/20 08:25:35;;;;;;;5.70;3.92;;;22.30;49.40;;;;;;4985864;28;20022;-76
2021/07/20 08:28:06;;;;;;;5.70;4.30;;;22.40;48.90;;;;;;4987709;28;20077;-77
2021/07/20 08:30:40;;;;;;;5.50;3.80;;;22.20;49.00;;;;;;4990079;28;20030;-77
2021/07/20 08:33:09;;;;;;;6.75;4.30;;;22.00;49.40;;;;;;4986674;28;20453;-75
2021/07/20 08:35:38;;;;;;;5.30;3.90;;;22.00;49.50;;;;;;4990498;28;20480;-76
2021/07/20 08:38:09;;;;;;;5.05;3.42;;;22.20;49.70;;;;;;4987186;28;20030;-75
2021/07/20 08:40:50;;;;;;;6.25;4.22;;;22.50;49.40;;;;;;4987114;28;20117;-75
2021/07/20 08:43:43;;;;;;;7.53;5.05;;;22.60;48.70;;;;;;4985918;28;20113;-76
2021/07/20 08:46:40;;;;;;;7.10;4.70;;;22.60;48.40;;;;;;4986218;28;20053;-77
2021/07/20 08:49:15;;;;;;;5.20;3.90;;;22.40;48.20;;;;;;4984533;28;20089;-76
2021/07/20 08:52:03;;;;;;;6.03;4.30;;;22.30;48.70;;;;;;4986695;28;20085;-77
2021/07/20 08:54:53;;;;;;;6.32;4.40;;;22.40;48.90;;;;;;4981981;28;20030;-76
2021/07/20 08:57:26;;;;;;;8.02;4.80;;;22.40;48.70;;;;;;4989744;28;20057;-77
2021/07/20 08:59:59;;;;;;;6.90;4.07;;;22.40;49.00;;;;;;4988670;28;20023;-75
2021/07/20 09:02:35;;;;;;;7.03;4.82;;;22.40;48.30;;;;;;4989289;28;20021;-77
2021/07/20 09:05:08;;;;;;;6.72;4.53;;;22.20;47.90;;;;;;4984960;28;20034;-76
2021/07/20 09:07:48;;;;;;;6.40;4.35;;;22.30;48.40;;;;;;4990195;28;20543;-78
2021/07/20 09:10:14;;;;;;;4.97;3.70;;;22.50;48.60;;;;;;4984774;28;20030;-77
2021/07/20 09:12:44;;;;;;;6.47;4.30;;;22.80;48.30;;;;;;4985701;28;20042;-76
2021/07/20 09:15:13;;;;;;;5.53;3.83;;;22.90;47.70;;;;;;4984052;28;20081;-78
2021/07/20 09:17:53;;;;;;;6.43;3.65;;;23.00;47.50;;;;;;4984214;28;20055;-77
2021/07/20 09:20:23;;;;;;;4.32;3.20;;;23.10;47.40;;;;;;4981765;28;20440;-77
2021/07/20 09:22:56;;;;;;;6.78;4.15;;;23.20;47.70;;;;;;5013901;28;20424;-77
2021/07/20 09:25:32;;;;;;;5.90;3.97;;;23.10;47.40;;;;;;4982455;28;20720;-78
2021/07/20 09:28:08;;;;;;;5.70;3.65;;;23.40;47.60;;;;;;4989694;28;20038;-78
2021/07/20 09:30:39;;;;;;;4.43;3.10;;;23.60;47.10;;;;;;4989278;28;20109;-78
2021/07/20 09:33:08;;;;;;;5.88;3.72;;;23.70;46.90;;;;;;4991353;28;20133;-75
2021/07/20 09:35:58;;;;;;;7.63;5.20;;;23.80;46.70;;;;;;4994391;28;20018;-78
2021/07/20 09:38:29;;;;;;;8.48;5.15;;;23.60;45.90;;;;;;4981097;28;20082;-77
2021/07/20 09:41:19;;;;;;;7.72;5.22;;;23.50;45.70;;;;;;4991937;28;20030;-79
2021/07/20 09:44:21;;;;;;;7.38;5.05;;;23.00;46.10;;;;;;4993219;28;20027;-78
2021/07/20 09:47:23;;;;;;;7.90;5.10;;;22.70;46.50;;;;;;4988834;28;20373;-78
2021/07/20 09:50:04;;;;;;;6.43;3.78;;;22.70;47.30;;;;;;4988456;28;20046;-77
2021/07/20 09:52:41;;;;;;;6.57;4.60;;;23.00;47.30;;;;;;4997631;28;20092;-76
2021/07/20 09:55:09;;;;;;;6.70;4.68;;;23.00;47.50;;;;;;4989901;28;20066;-77
2021/07/20 09:57:59;;;;;;;7.15;5.10;;;23.30;47.10;;;;;;4989173;28;20022;-79
2021/07/20 10:00:40;;;;;;;5.40;3.55;;;23.20;46.70;;;;;;4987438;28;20552;-77
2021/07/20 10:03:16;;;;;;;5.82;4.13;;;23.40;46.60;;;;;;4990030;28;20018;-77
2021/07/20 10:06:13;;;;;;;6.03;4.47;;;23.40;46.60;;;;;;4994596;28;20061;-76
2021/07/20 10:09:06;;;;;;;6.32;4.30;;;23.40;46.20;;;;;;4990798;28;20030;-76
2021/07/20 10:11:53;;;;;;;5.13;4.18;;;23.50;46.40;;;;;;4988503;28;20042;-76
2021/07/20 10:14:27;;;;;;;7.07;5.10;;;23.80;46.50;;;;;;4985219;28;20114;-75
2021/07/20 10:17:28;;;;;;;5.85;3.83;;;24.00;45.60;;;;;;4990354;28;20465;-76
2021/07/20 10:20:12;;;;;;;4.78;3.75;;;24.30;45.70;;;;;;4985287;28;20031;-75
2021/07/20 10:22:49;;;;;;;6.57;4.57;;;24.10;45.30;;;;;;4990405;28;20026;-78
2021/07/20 10:25:40;;;;;;;5.72;4.10;;;23.70;44.30;;;;;;4987166;28;20030;-76
2021/07/20 10:28:12;;;;;;;5.78;3.80;;;23.40;45.40;;;;;;4981401;28;20120;-77
2021/07/20 10:30:40;;;;;;;5.43;4.03;;;23.40;46.00;;;;;;4986160;28;20042;-78
2021/07/20 10:33:17;;;;;;;6.85;4.03;;;23.40;45.90;;;;;;4988734;28;20109;-78
2021/07/20 10:35:50;;;;;;;6.13;4.20;;;23.60;45.70;;;;;;4984432;28;20385;-77
2021/07/20 10:38:21;;;;;;;5.00;3.45;;;23.80;45.40;;;;;;4989261;28;20027;-76
2021/07/20 10:40:51;;;;;;;6.25;4.00;;;24.10;45.20;;;;;;4989004;28;20535;-77
2021/07/20 10:43:24;;;;;;;6.95;4.43;;;24.00;44.80;;;;;;4988148;28;20026;-78
2021/07/20 10:45:51;;;;;;;5.95;4.20;;;24.00;44.40;;;;;;4990705;28;20042;-78
2021/07/20 10:48:21;;;;;;;5.18;3.75;;;23.80;44.80;;;;;;4984386;28;20809;-78
2021/07/20 10:51:12;;;;;;;4.80;3.50;;;23.90;44.90;;;;;;4990598;28;20053;-78
2021/07/20 10:54:03;;;;;;;5.47;3.53;;;24.20;44.90;;;;;;5010802;28;20125;-76
2021/07/20 10:56:50;;;;;;;5.10;3.63;;;24.50;44.60;;;;;;4980613;28;20095;-77
2021/07/20 10:59:18;;;;;;;4.28;3.15;;;24.70;44.10;;;;;;4984987;28;20432;-77
2021/07/20 11:02:06;;;;;;;5.00;3.97;;;24.70;44.00;;;;;;4983935;28;20031;-76
2021/07/20 11:04:35;;;;;;;4.90;3.25;;;24.50;44.00;;;;;;4984034;28;20030;-76
2021/07/20 11:07:04;;;;;;;5.05;3.67;;;24.20;44.20;;;;;;4984219;28;20435;-76
2021/07/20 11:09:31;;;;;;;5.03;3.25;;;24.10;44.70;;;;;;4985965;28;20052;-76
2021/07/20 11:12:02;;;;;;;5.28;3.50;;;24.20;45.00;;;;;;4985977;28;20790;-75
2021/07/20 11:14:37;;;;;;;5.60;4.10;;;24.30;44.90;;;;;;4986163;28;20034;-75
2021/07/20 11:17:05;;;;;;;5.72;4.20;;;24.30;44.70;;;;;;4985909;28;20030;-76
2021/07/20 11:19:32;;;;;;;4.85;3.28;;;24.30;44.60;;;;;;4987305;28;20121;-76
2021/07/20 11:21:59;;;;;;;5.47;4.07;;;24.50;44.50;;;;;;4986458;28;21317;-76
2021/07/20 11:24:26;;;;;;;6.60;4.72;;;24.50;44.00;;;;;;4984104;28;20038;-77
2021/07/20 11:26:52;;;;;;;6.35;4.18;;;24.50;43.50;;;;;;4987042;28;20025;-78
2021/07/20 11:29:18;;;;;;;5.47;4.18;;;24.50;43.80;;;;;;4987870;28;20469;-77
2021/07/20 11:31:54;;;;;;;7.53;5.18;;;24.60;43.80;;;;;;4988602;28;20042;-75
2021/07/20 11:34:23;;;;;;;7.50;4.93;;;24.50;43.30;;;;;;4990180;28;20034;-76
2021/07/20 11:36:53;;;;;;;8.55;5.15;;;24.50;43.60;;;;;;5017500;28;20034;-77
2021/07/20 11:39:25;;;;;;;6.50;4.47;;;24.20;43.70;;;;;;4993765;28;20026;-75
2021/07/20 11:42:12;;;;;;;6.45;4.90;;;24.20;44.40;;;;;;4990542;28;20040;-79
2021/07/20 11:44:47;;;;;;;7.63;5.22;;;24.20;44.00;;;;;;4983764;28;20130;-76
2021/07/20 11:47:18;;;;;;;6.90;4.85;;;23.80;44.30;;;;;;4988184;28;20584;-77
2021/07/20 11:49:50;;;;;;;6.32;4.47;;;23.50;44.70;;;;;;4990870;28;20030;-78
2021/07/20 11:52:27;;;;;;;5.63;4.10;;;23.50;45.50;;;;;;4995304;28;20034;-77
2021/07/20 11:55:05;;;;;;;7.03;4.60;;;23.90;45.40;;;;;;4992352;28;20030;-78
2021/07/20 11:58:02;;;;;;;7.25;4.93;;;24.20;45.10;;;;;;4992063;28;20034;-77
2021/07/20 12:00:46;;;;;;;6.45;4.50;;;24.60;44.70;;;;;;4991057;28;20489;-77
2021/07/20 12:03:19;;;;;;;6.78;4.55;;;24.80;44.20;;;;;;4989498;28;20030;-77
2021/07/20 12:06:03;;;;;;;5.93;3.75;;;25.00;43.80;;;;;;4990962;28;20164;-77
2021/07/20 12:08:52;;;;;;;8.48;5.93;;;25.30;43.60;;;;;;4989938;28;20045;-77
2021/07/20 12:11:30;;;;;;;7.07;5.05;;;24.90;42.90;;;;;;4992101;28;20027;-76
2021/07/20 12:14:07;;;;;;;5.97;4.25;;;24.50;43.60;;;;;;4997311;28;20181;-75
2021/07/20 12:16:42;;;;;;;5.93;4.40;;;24.50;43.90;;;;;;4990447;28;20126;-76
2021/07/20 12:19:09;;;;;;;5.13;3.60;;;24.40;44.10;;;;;;4987190;28;20030;-77
2021/07/20 12:21:38;;;;;;;6.35;4.35;;;24.70;44.00;;;;;;4985363;28;20390;-80
2021/07/20 12:24:10;;;;;;;5.43;4.32;;;25.00;43.50;;;;;;4985858;28;20037;-78
2021/07/20 12:26:37;;;;;;;5.57;4.30;;;25.10;43.40;;;;;;4986075;28;20084;-76
2021/07/20 12:29:07;;;;;;;5.22;3.70;;;25.00;43.40;;;;;;4987051;28;20093;-76
2021/07/20 12:31:33;;;;;;;9.25;6.10;;;24.90;43.60;;;;;;4985285;28;20042;-74
2021/07/20 12:33:59;;;;;;;8.30;5.55;;;24.90;43.00;;;;;;4986579;28;20018;-74
2021/07/20 12:36:26;;;;;;;8.85;6.28;;;24.70;43.40;;;;;;4986786;28;20090;-77
2021/07/20 12:39:06;;;;;;;5.60;4.03;;;24.50;43.20;;;;;;4983251;28;20029;-79
2021/07/20 12:41:35;;;;;;;6.30;4.32;;;24.80;43.80;;;;;;4980854;28;20188;-76
2021/07/20 12:44:01;;;;;;;7.68;4.97;;;25.20;43.50;;;;;;4987174;28;20022;-76
2021/07/20 12:46:35;;;;;;;7.78;5.80;;;25.10;43.00;;;;;;4986988;28;20482;-73
2021/07/20 12:49:04;;;;;;;6.05;4.38;;;25.10;42.50;;;;;;4986659;28;20397;-76
2021/07/20 12:51:29;;;;;;;5.70;4.30;;;25.10;42.90;;;;;;4987347;28;20026;-74
2021/07/20 12:53:55;;;;;;;5.70;4.28;;;25.30;42.80;;;;;;4985381;28;20049;-75
2021/07/20 12:56:26;;;;;;;5.72;4.45;;;25.70;42.70;;;;;;4983913;28;20110;-76
2021/07/20 12:59:01;;;;;;;5.87;4.30;;;26.00;42.30;;;;;;4985058;28;20477;-75
2021/07/20 13:01:27;;;;;;;5.55;3.95;;;26.40;42.00;;;;;;4986524;28;20136;-74
2021/07/20 13:03:53;;;;;;;5.45;4.05;;;26.70;41.40;;;;;;4989117;28;20049;-73
2021/07/20 13:06:21;;;;;;;6.22;3.97;;;27.00;41.10;;;;;;4984045;28;20026;-75
2021/07/20 13:08:50;;;;;;;6.30;4.60;;;27.00;40.40;;;;;;4984063;28;20109;-76